createdAt,value
2019-02-06T00:01:01.743Z,-3.50
2019-02-06T00:03:30.225Z,-3.50
2019-02-06T00:05:59.199Z,-3.60
2019-02-06T00:08:27.964Z,-3.60
2019-02-06T00:10:56.515Z,-3.60
2019-02-06T00:13:24.989Z,-3.60
2019-02-06T00:15:53.862Z,-3.60
2019-02-06T00:18:22.649Z,-3.70
2019-02-06T00:20:51.167Z,-3.70
2019-02-06T00:23:19.606Z,-3.80
2019-02-06T00:25:48.165Z,-3.80
2019-02-06T00:28:16.653Z,-3.90
2019-02-06T00:30:45.266Z,-4.00
2019-02-06T00:33:13.726Z,-3.90
2019-02-06T00:35:42.129Z,-3.90
2019-02-06T00:38:10.569Z,-4.10
2019-02-06T00:40:39.299Z,-4.20
2019-02-06T00:43:07.710Z,-4.30
2019-02-06T00:45:36.553Z,-4.50
2019-02-06T00:48:05.338Z,-4.60
2019-02-06T00:50:34.035Z,-4.70
2019-02-06T00:53:02.439Z,-4.80
2019-02-06T00:55:30.893Z,-4.90
2019-02-06T00:57:59.326Z,-4.90
2019-02-06T01:00:27.835Z,-4.90
2019-02-06T01:02:56.523Z,-4.90
2019-02-06T01:05:25.045Z,-4.90
2019-02-06T01:07:53.717Z,-4.90
2019-02-06T01:10:22.396Z,-5.00
2019-02-06T01:12:50.874Z,-4.90
2019-02-06T01:15:19.411Z,-4.80
2019-02-06T01:17:47.818Z,-4.60
2019-02-06T01:20:19.932Z,-4.60
2019-02-06T01:22:48.340Z,-4.60
2019-02-06T01:25:17.312Z,-4.70
2019-02-06T01:27:45.798Z,-4.70
2019-02-06T01:30:22.734Z,-4.90
2019-02-06T01:32:51.216Z,-5.00
2019-02-06T01:35:19.620Z,-5.10
2019-02-06T01:37:48.045Z,-5.10
2019-02-06T01:40:21.145Z,-5.10
2019-02-06T01:42:49.654Z,-5.10
2019-02-06T01:45:19.732Z,-5.20
2019-02-06T01:47:48.157Z,-5.30
2019-02-06T01:50:18.377Z,-5.20
2019-02-06T01:52:46.961Z,-5.10
2019-02-06T01:55:16.130Z,-5.20
2019-02-06T01:57:44.646Z,-5.10
2019-02-06T02:00:19.121Z,-5.00
2019-02-06T02:02:47.581Z,-4.90
2019-02-06T02:05:19.136Z,-4.80
2019-02-06T02:07:48.505Z,-4.80
2019-02-06T02:10:18.086Z,-4.70
2019-02-06T02:12:46.926Z,-4.60
2019-02-06T02:15:17.477Z,-4.70
2019-02-06T02:17:45.931Z,-4.80
2019-02-06T02:20:19.794Z,-4.70
2019-02-06T02:22:48.357Z,-4.70
2019-02-06T02:25:16.863Z,-4.70
2019-02-06T02:27:45.443Z,-4.50
2019-02-06T02:30:20.990Z,-4.60
2019-02-06T02:32:49.960Z,-4.60
2019-02-06T02:35:18.469Z,-4.70
2019-02-06T02:37:46.979Z,-4.70
2019-02-06T02:40:16.308Z,-4.70
2019-02-06T02:42:44.916Z,-4.70
2019-02-06T02:45:15.802Z,-4.70
2019-02-06T02:47:44.646Z,-4.60
2019-02-06T02:50:13.650Z,-4.60
2019-02-06T02:52:42.158Z,-4.60
2019-02-06T02:55:13.131Z,-4.50
2019-02-06T02:57:41.755Z,-4.60
2019-02-06T03:00:21.793Z,-4.60
2019-02-06T03:02:57.800Z,-4.60
2019-02-06T03:05:27.532Z,-4.60
2019-02-06T03:07:55.964Z,-4.60
2019-02-06T03:10:24.474Z,-4.60
2019-02-06T03:12:53.218Z,-4.50
2019-02-06T03:15:22.021Z,-4.40
2019-02-06T03:17:50.437Z,-4.40
2019-02-06T03:20:19.053Z,-4.40
2019-02-06T03:22:47.531Z,-4.50
2019-02-06T03:25:16.126Z,-4.50
2019-02-06T03:27:44.609Z,-4.70
2019-02-06T03:30:18.273Z,-4.60
2019-02-06T03:32:46.868Z,-4.60
2019-02-06T03:35:15.513Z,-4.70
2019-02-06T03:37:43.970Z,-4.50
2019-02-06T03:40:17.758Z,-4.30
2019-02-06T03:42:49.023Z,-4.30
2019-02-06T03:45:17.851Z,-4.60
2019-02-06T03:47:46.299Z,-4.70
2019-02-06T03:50:17.746Z,-4.70
2019-02-06T03:52:46.151Z,-4.60
2019-02-06T03:55:14.965Z,-4.50
2019-02-06T03:57:43.509Z,-4.50
2019-02-06T04:00:17.162Z,-4.60
2019-02-06T04:02:45.569Z,-4.60
2019-02-06T04:05:14.468Z,-4.70
2019-02-06T04:07:43.117Z,-4.70
2019-02-06T04:10:19.783Z,-4.60
2019-02-06T04:12:48.385Z,-4.50
2019-02-06T04:15:17.653Z,-4.40
2019-02-06T04:17:46.126Z,-4.30
2019-02-06T04:20:15.997Z,-4.20
2019-02-06T04:22:44.509Z,-4.00
2019-02-06T04:25:14.552Z,-4.00
2019-02-06T04:27:42.974Z,-4.00
2019-02-06T04:30:16.829Z,-4.30
2019-02-06T04:32:45.316Z,-4.30
2019-02-06T04:35:15.316Z,-4.30
2019-02-06T04:37:43.824Z,-4.30
2019-02-06T04:40:19.868Z,-4.30
2019-02-06T04:42:48.769Z,-4.30
2019-02-06T04:45:19.038Z,-4.40
2019-02-06T04:47:47.583Z,-4.30
2019-02-06T04:50:17.434Z,-4.20
2019-02-06T04:52:45.889Z,-4.20
2019-02-06T04:55:16.218Z,-4.10
2019-02-06T04:57:45.110Z,-4.10
2019-02-06T05:00:26.927Z,-4.10
2019-02-06T05:02:55.669Z,-4.10
2019-02-06T05:05:24.371Z,-4.00
2019-02-06T05:07:52.882Z,-4.00
2019-02-06T05:10:21.310Z,-3.90
2019-02-06T05:12:49.832Z,-3.90
2019-02-06T05:15:18.790Z,-3.80
2019-02-06T05:17:47.251Z,-3.80
2019-02-06T05:20:21.762Z,-3.90
2019-02-06T05:22:50.236Z,-3.90
2019-02-06T05:25:18.665Z,-3.80
2019-02-06T05:27:47.478Z,-3.80
2019-02-06T05:30:16.043Z,-3.90
2019-02-06T05:32:45.034Z,-3.90
2019-02-06T05:35:13.514Z,-3.80
2019-02-06T05:37:41.951Z,-3.70
2019-02-06T05:40:11.634Z,-3.60
2019-02-06T05:42:40.506Z,-3.50
2019-02-06T05:45:10.969Z,-3.60
2019-02-06T05:47:39.401Z,-3.50
2019-02-06T05:50:13.831Z,-3.50
2019-02-06T05:52:42.335Z,-3.50
2019-02-06T05:55:11.782Z,-3.50
2019-02-06T05:57:40.343Z,-3.60
2019-02-06T06:00:14.249Z,-3.50
2019-02-06T06:02:42.831Z,-3.40
2019-02-06T06:05:11.723Z,-3.40
2019-02-06T06:07:45.399Z,-3.30
2019-02-06T06:10:13.518Z,-3.20
2019-02-06T06:12:42.421Z,-3.10
2019-02-06T06:15:12.570Z,-3.20
2019-02-06T06:17:41.011Z,-3.20
2019-02-06T06:20:12.227Z,-3.30
2019-02-06T06:22:40.814Z,-3.20
2019-02-06T06:25:12.354Z,-3.20
2019-02-06T06:27:41.365Z,-3.30
2019-02-06T06:30:12.325Z,-3.30
2019-02-06T06:32:40.809Z,-3.20
2019-02-06T06:35:11.721Z,-3.20
2019-02-06T06:37:41.550Z,-3.20
2019-02-06T06:40:13.307Z,-3.10
2019-02-06T06:42:42.197Z,-3.10
2019-02-06T06:45:13.709Z,-3.00
2019-02-06T06:47:42.221Z,-3.10
2019-02-06T06:50:13.701Z,-3.10
2019-02-06T06:52:42.189Z,-3.00
2019-02-06T06:55:12.938Z,-3.00
2019-02-06T06:57:41.744Z,-2.90
2019-02-06T07:00:22.029Z,-3.00
2019-02-06T07:02:50.509Z,-3.10
2019-02-06T07:05:19.149Z,-3.00
2019-02-06T07:07:47.763Z,-3.00
2019-02-06T07:10:17.243Z,-3.10
2019-02-06T07:12:45.653Z,-3.20
2019-02-06T07:15:19.716Z,-3.10
2019-02-06T07:17:48.601Z,-3.10
2019-02-06T07:20:19.145Z,-2.90
2019-02-06T07:22:47.649Z,-2.80
2019-02-06T07:25:18.370Z,-2.70
2019-02-06T07:27:46.849Z,-2.80
2019-02-06T07:30:29.859Z,-2.80
2019-02-06T07:32:58.500Z,-2.70
2019-02-06T07:35:27.078Z,-2.60
2019-02-06T07:37:56.062Z,-2.70
2019-02-06T07:40:24.909Z,-2.70
2019-02-06T07:42:53.397Z,-2.70
2019-02-06T07:45:21.913Z,-2.70
2019-02-06T07:47:50.505Z,-2.70
2019-02-06T07:50:24.288Z,-2.60
2019-02-06T07:52:52.846Z,-2.60
2019-02-06T07:55:21.249Z,-2.70
2019-02-06T07:57:49.750Z,-2.80
2019-02-06T08:00:18.153Z,-2.70
2019-02-06T08:02:46.819Z,-2.60
2019-02-06T08:05:19.758Z,-2.50
2019-02-06T08:07:48.668Z,-2.60
2019-02-06T08:10:23.601Z,-2.70
2019-02-06T08:12:52.105Z,-2.60
2019-02-06T08:15:21.096Z,-2.50
2019-02-06T08:17:49.579Z,-2.50
2019-02-06T08:20:22.362Z,-2.40
2019-02-06T08:22:51.197Z,-2.30
2019-02-06T08:25:21.695Z,-2.20
2019-02-06T08:27:50.213Z,-2.10
2019-02-06T08:30:36.537Z,-2.00
2019-02-06T08:33:05.325Z,-2.10
2019-02-06T08:35:34.105Z,-2.10
2019-02-06T08:38:02.534Z,-2.10
2019-02-06T08:40:32.945Z,-2.00
2019-02-06T08:43:01.437Z,-2.20
2019-02-06T08:45:29.938Z,-2.20
2019-02-06T08:47:58.476Z,-2.20
2019-02-06T08:50:27.394Z,-2.20
2019-02-06T08:52:56.169Z,-2.10
2019-02-06T08:55:32.382Z,-2.10
2019-02-06T08:58:01.955Z,-2.10
2019-02-06T09:00:33.101Z,-2.10
2019-02-06T09:03:02.123Z,-2.20
2019-02-06T09:05:30.912Z,-2.40
2019-02-06T09:07:59.497Z,-2.30
2019-02-06T09:10:30.077Z,-2.10
2019-02-06T09:12:59.641Z,-2.00
2019-02-06T09:15:29.325Z,-1.90
2019-02-06T09:17:57.821Z,-1.90
2019-02-06T09:20:27.765Z,-1.90
2019-02-06T09:22:57.281Z,-1.80
2019-02-06T09:25:27.239Z,-1.80
2019-02-06T09:27:56.422Z,-1.70
2019-02-06T09:30:27.441Z,-1.60
2019-02-06T09:32:56.800Z,-1.60
2019-02-06T09:35:25.598Z,-1.40
2019-02-06T09:37:54.392Z,-1.20
2019-02-06T09:40:25.175Z,-1.50
2019-02-06T09:42:53.589Z,-1.70
2019-02-06T09:45:22.097Z,-1.70
2019-02-06T09:47:50.545Z,-1.70
2019-02-06T09:50:21.790Z,-1.60
2019-02-06T09:52:50.253Z,-1.50
2019-02-06T09:55:18.752Z,-1.60
2019-02-06T09:57:47.586Z,-1.50
2019-02-06T10:00:21.599Z,-1.30
2019-02-06T10:02:50.203Z,-1.40
2019-02-06T10:05:19.239Z,-1.10
2019-02-06T10:07:47.726Z,-1.00
2019-02-06T10:10:18.261Z,-1.00
2019-02-06T10:12:46.745Z,-0.90
2019-02-06T10:15:18.320Z,-0.90
2019-02-06T10:17:46.809Z,-0.80
2019-02-06T10:20:17.769Z,-0.70
2019-02-06T10:22:46.224Z,-0.60
2019-02-06T10:25:15.539Z,-0.80
2019-02-06T10:27:43.967Z,-0.70
2019-02-06T10:30:18.206Z,-0.60
2019-02-06T10:32:46.766Z,-0.60
2019-02-06T10:35:15.590Z,-0.70
2019-02-06T10:37:44.042Z,-0.90
2019-02-06T10:40:12.963Z,-0.80
2019-02-06T10:42:41.470Z,-0.70
2019-02-06T10:45:20.946Z,-0.60
2019-02-06T10:47:48.943Z,-0.50
2019-02-06T10:50:29.524Z,-0.40
2019-02-06T10:52:58.066Z,-0.30
2019-02-06T10:55:26.582Z,-0.30
2019-02-06T10:57:55.004Z,-0.60
2019-02-06T11:00:29.722Z,-0.70
2019-02-06T11:02:57.164Z,-0.70
2019-02-06T11:05:25.666Z,-0.90
2019-02-06T11:07:54.094Z,-0.90
2019-02-06T11:10:24.881Z,-0.80
2019-02-06T11:12:53.456Z,-0.70
2019-02-06T11:15:22.399Z,-0.60
2019-02-06T11:17:51.390Z,-0.60
2019-02-06T11:20:22.169Z,-0.80
2019-02-06T11:22:50.943Z,-0.90
2019-02-06T11:25:19.425Z,-0.70
2019-02-06T11:27:47.841Z,-0.50
2019-02-06T11:30:24.635Z,-0.30
2019-02-06T11:32:53.381Z,-0.10
2019-02-06T11:35:21.810Z,0.10
2019-02-06T11:37:50.283Z,0.30
2019-02-06T11:40:21.005Z,0.40
2019-02-06T11:42:49.670Z,0.30
2019-02-06T11:45:26.884Z,0.30
2019-02-06T11:47:55.336Z,0.00
2019-02-06T11:50:25.502Z,-0.10
2019-02-06T11:52:54.000Z,0.00
2019-02-06T11:55:30.607Z,-0.20
2019-02-06T11:57:59.065Z,-0.40
2019-02-06T12:00:48.648Z,-0.30
2019-02-06T12:03:17.112Z,-0.50
2019-02-06T12:05:45.722Z,-0.70
2019-02-06T12:08:14.201Z,-0.60
2019-02-06T12:10:42.732Z,-0.50
2019-02-06T12:13:11.271Z,-0.40
2019-02-06T12:15:39.750Z,-0.40
2019-02-06T12:18:08.266Z,-0.30
2019-02-06T12:20:37.321Z,-0.20
2019-02-06T12:23:05.899Z,-0.40
2019-02-06T12:25:34.774Z,-0.50
2019-02-06T12:28:05.194Z,-0.40
2019-02-06T12:30:41.266Z,-0.20
2019-02-06T12:33:09.666Z,-0.20
2019-02-06T12:35:38.089Z,0.00
2019-02-06T12:38:06.849Z,0.10
2019-02-06T12:40:35.486Z,0.10
2019-02-06T12:43:06.424Z,-0.30
2019-02-06T12:45:35.305Z,-0.40
2019-02-06T12:48:04.768Z,-0.10
2019-02-06T12:50:33.427Z,0.10
2019-02-06T12:53:01.878Z,0.30
2019-02-06T12:55:35.953Z,0.50
2019-02-06T12:58:05.808Z,0.70
2019-02-06T13:00:37.055Z,0.90
2019-02-06T13:03:06.094Z,0.90
2019-02-06T13:05:34.753Z,0.60
2019-02-06T13:08:03.736Z,0.70
2019-02-06T13:10:34.306Z,0.60
2019-02-06T13:13:03.162Z,0.40
2019-02-06T13:15:32.078Z,0.30
2019-02-06T13:18:00.677Z,0.20
2019-02-06T13:20:34.601Z,0.20
2019-02-06T13:23:03.037Z,0.30
2019-02-06T13:25:31.487Z,0.10
2019-02-06T13:28:00.022Z,-0.10
2019-02-06T13:30:38.744Z,-0.30
2019-02-06T13:33:08.060Z,-0.30
2019-02-06T13:35:38.641Z,-0.40
2019-02-06T13:38:07.228Z,-0.60
2019-02-06T13:40:45.233Z,-0.70
2019-02-06T13:43:06.269Z,-0.40
2019-02-06T13:45:37.509Z,-0.60
2019-02-06T13:48:06.393Z,-0.90
2019-02-06T13:50:34.946Z,-0.90
2019-02-06T13:53:03.466Z,-0.60
2019-02-06T13:55:31.901Z,-0.50
2019-02-06T13:58:00.400Z,-0.30
2019-02-06T14:00:34.127Z,-0.10
2019-02-06T14:03:02.571Z,-0.10
2019-02-06T14:05:32.505Z,0.00
2019-02-06T14:08:03.365Z,0.10
2019-02-06T14:10:32.441Z,0.10
2019-02-06T14:13:01.793Z,0.20
2019-02-06T14:15:33.281Z,0.30
2019-02-06T14:18:01.787Z,0.10
2019-02-06T14:20:31.173Z,-0.10
2019-02-06T14:23:03.040Z,0.00
2019-02-06T14:25:57.282Z,-0.10
2019-02-06T14:28:45.146Z,-0.10
2019-02-06T14:31:31.856Z,-0.20
2019-02-06T14:34:15.423Z,-0.10
2019-02-06T14:36:58.982Z,-0.60
2019-02-06T14:39:33.583Z,-0.90
2019-02-06T14:42:08.233Z,-1.10
2019-02-06T14:44:48.356Z,-1.00
2019-02-06T14:47:41.553Z,-0.80
2019-02-06T14:50:15.916Z,-0.90
2019-02-06T14:52:59.303Z,-1.20
2019-02-06T14:55:31.185Z,-1.30
2019-02-06T14:58:05.662Z,-1.30
2019-02-06T15:00:43.052Z,-1.30
2019-02-06T15:03:26.138Z,-1.20
2019-02-06T15:06:09.822Z,-1.10
2019-02-06T15:08:56.469Z,-1.00
2019-02-06T15:11:44.358Z,-1.00
2019-02-06T15:14:24.435Z,-1.00
2019-02-06T15:17:24.788Z,-1.10
2019-02-06T15:19:56.557Z,-1.10
2019-02-06T15:22:30.702Z,-1.10
2019-02-06T15:25:14.600Z,-1.00
2019-02-06T15:27:56.593Z,-1.00
2019-02-06T15:30:36.622Z,-1.30
2019-02-06T15:33:23.139Z,-1.30
2019-02-06T15:35:58.095Z,-1.10
2019-02-06T15:38:50.465Z,-1.40
2019-02-06T15:41:42.996Z,-1.60
2019-02-06T15:44:23.281Z,-1.60
2019-02-06T15:47:06.571Z,-1.60
2019-02-06T15:49:53.689Z,-1.60
2019-02-06T15:52:33.997Z,-1.60
2019-02-06T15:55:25.841Z,-1.70
2019-02-06T15:58:12.404Z,-1.70
2019-02-06T16:01:01.365Z,-1.80
2019-02-06T16:04:08.865Z,-1.80
2019-02-06T16:06:59.479Z,-2.10
2019-02-06T16:09:46.055Z,-1.90
2019-02-06T16:12:32.424Z,-1.80
2019-02-06T16:15:22.402Z,-2.00
2019-02-06T16:17:56.970Z,-2.10
2019-02-06T16:20:31.269Z,-2.00
2019-02-06T16:23:27.789Z,-2.00
2019-02-06T16:26:08.022Z,-2.00
2019-02-06T16:28:48.035Z,-2.00
2019-02-06T16:31:39.164Z,-2.00
2019-02-06T16:34:36.641Z,-2.00
2019-02-06T16:37:22.693Z,-1.90
2019-02-06T16:40:13.729Z,-1.70
2019-02-06T16:42:50.635Z,-1.60
2019-02-06T16:45:31.001Z,-1.70
2019-02-06T16:48:14.362Z,-1.70
2019-02-06T16:50:51.595Z,-1.70
2019-02-06T16:53:49.047Z,-1.80
2019-02-06T16:56:35.551Z,-1.90
2019-02-06T16:59:34.170Z,-1.90
2019-02-06T17:02:08.577Z,-2.10
2019-02-06T17:04:42.899Z,-2.00
2019-02-06T17:07:19.721Z,-2.20
2019-02-06T17:10:08.052Z,-2.30
2019-02-06T17:12:59.289Z,-2.30
2019-02-06T17:15:48.581Z,-2.30
2019-02-06T17:18:28.943Z,-2.40
2019-02-06T17:21:03.355Z,-2.40
2019-02-06T17:23:40.874Z,-2.50
2019-02-06T17:26:35.286Z,-2.60
2019-02-06T17:29:12.042Z,-2.50
2019-02-06T17:31:58.614Z,-2.40
2019-02-06T17:34:38.927Z,-2.30
2019-02-06T17:37:29.891Z,-2.40
2019-02-06T17:40:01.445Z,-2.20
2019-02-06T17:42:52.353Z,-2.10
2019-02-06T17:45:41.780Z,-2.20
2019-02-06T17:48:13.287Z,-2.40
2019-02-06T17:50:50.626Z,-2.50
2019-02-06T17:53:28.274Z,-2.50
2019-02-06T17:55:56.781Z,-2.60
2019-02-06T17:58:25.770Z,-2.60
2019-02-06T18:00:58.554Z,-2.50
2019-02-06T18:03:27.630Z,-2.40
2019-02-06T18:05:56.058Z,-2.20
2019-02-06T18:08:24.482Z,-2.40
2019-02-06T18:10:53.185Z,-2.50
2019-02-06T18:13:21.665Z,-2.70
2019-02-06T18:16:09.441Z,-2.60
2019-02-06T18:18:37.870Z,-2.60
2019-02-06T18:21:06.413Z,-2.70
2019-02-06T18:23:34.883Z,-2.70
2019-02-06T18:26:03.452Z,-2.50
2019-02-06T18:28:32.038Z,-2.60
2019-02-06T18:31:00.601Z,-2.60
2019-02-06T18:33:30.193Z,-2.60
2019-02-06T18:35:58.700Z,-2.50
2019-02-06T18:38:27.105Z,-2.30
2019-02-06T18:40:55.852Z,-2.30
2019-02-06T18:43:24.333Z,-2.30
2019-02-06T18:45:52.826Z,-2.30
2019-02-06T18:48:23.451Z,-2.20
2019-02-06T18:50:52.024Z,-2.30
2019-02-06T18:53:20.449Z,-2.40
2019-02-06T18:55:51.242Z,-2.50
2019-02-06T18:58:19.453Z,-2.50
2019-02-06T19:00:47.961Z,-2.50
2019-02-06T19:03:19.694Z,-2.50
2019-02-06T19:05:49.117Z,-2.40
2019-02-06T19:08:17.598Z,-2.40
2019-02-06T19:10:46.557Z,-2.30
2019-02-06T19:13:15.240Z,-2.30
2019-02-06T19:15:43.883Z,-2.20
2019-02-06T19:18:12.829Z,-2.20
2019-02-06T19:20:41.257Z,-2.20
2019-02-06T19:23:09.672Z,-2.20
2019-02-06T19:25:38.194Z,-2.40
2019-02-06T19:28:06.657Z,-2.30
2019-02-06T19:30:41.003Z,-2.20
2019-02-06T19:33:10.118Z,-2.20
2019-02-06T19:35:38.558Z,-2.20
2019-02-06T19:38:07.518Z,-2.20
2019-02-06T19:40:36.039Z,-2.30
2019-02-06T19:43:05.244Z,-2.40
2019-02-06T19:45:33.819Z,-2.40
2019-02-06T19:48:02.313Z,-2.40
2019-02-06T19:50:36.902Z,-2.30
2019-02-06T19:53:05.382Z,-2.20
2019-02-06T19:55:33.882Z,-2.30
2019-02-06T19:58:02.382Z,-2.50
2019-02-06T20:00:32.787Z,-2.50
2019-02-06T20:03:20.766Z,-2.40
2019-02-06T20:05:49.336Z,-2.40
2019-02-06T20:08:17.777Z,-2.40
2019-02-06T20:10:49.134Z,-2.30
2019-02-06T20:13:17.694Z,-2.30
2019-02-06T20:15:46.218Z,-2.40
2019-02-06T20:18:14.999Z,-2.40
2019-02-06T20:20:43.508Z,-2.30
2019-02-06T20:23:11.994Z,-2.30
2019-02-06T20:25:40.390Z,-2.40
2019-02-06T20:28:08.972Z,-2.50
2019-02-06T20:30:37.465Z,-2.50
2019-02-06T20:33:05.954Z,-2.40
2019-02-06T20:35:34.774Z,-2.30
2019-02-06T20:38:03.270Z,-2.30
2019-02-06T20:40:40.101Z,-2.40
2019-02-06T20:43:08.589Z,-2.40
2019-02-06T20:45:37.154Z,-2.50
2019-02-06T20:48:05.712Z,-2.50
2019-02-06T20:50:36.528Z,-2.50
2019-02-06T20:53:05.462Z,-2.50
2019-02-06T20:55:33.976Z,-2.40
2019-02-06T20:58:02.482Z,-2.40
2019-02-06T21:00:33.156Z,-2.50
2019-02-06T21:03:01.595Z,-2.70
2019-02-06T21:05:30.217Z,-2.90
2019-02-06T21:07:59.109Z,-2.90
2019-02-06T21:10:32.206Z,-2.90
2019-02-06T21:13:00.705Z,-3.00
2019-02-06T21:15:29.790Z,-3.10
2019-02-06T21:17:59.357Z,-3.10
2019-02-06T21:20:27.788Z,-3.10
2019-02-06T21:22:58.289Z,-3.00
2019-02-06T21:25:27.265Z,-2.90
2019-02-06T21:27:55.790Z,-2.80
2019-02-06T21:30:26.249Z,-2.80
2019-02-06T21:32:54.841Z,-2.80
2019-02-06T21:35:23.337Z,-2.70
2019-02-06T21:37:51.763Z,-2.70
2019-02-06T21:40:22.800Z,-2.70
2019-02-06T21:42:51.426Z,-2.80
2019-02-06T21:45:20.200Z,-2.90
2019-02-06T21:47:48.642Z,-3.00
2019-02-06T21:50:19.166Z,-3.10
2019-02-06T21:52:47.600Z,-3.10
2019-02-06T21:55:19.126Z,-3.10
2019-02-06T21:57:47.569Z,-3.00
2019-02-06T22:00:18.853Z,-3.00
2019-02-06T22:02:47.339Z,-2.90
2019-02-06T22:05:16.106Z,-2.80
2019-02-06T22:07:44.599Z,-2.90
2019-02-06T22:10:18.514Z,-2.90
2019-02-06T22:12:46.937Z,-2.90
2019-02-06T22:15:18.076Z,-3.00
2019-02-06T22:17:46.572Z,-3.10
2019-02-06T22:20:15.854Z,-3.10
2019-02-06T22:22:44.937Z,-3.00
2019-02-06T22:25:13.562Z,-2.90
2019-02-06T22:27:42.043Z,-2.80
2019-02-06T22:30:18.683Z,-2.80
2019-02-06T22:32:47.215Z,-2.90
2019-02-06T22:35:15.988Z,-3.00
2019-02-06T22:37:44.854Z,-3.00
2019-02-06T22:40:15.779Z,-3.10
2019-02-06T22:42:44.265Z,-3.10
2019-02-06T22:45:15.902Z,-3.10
2019-02-06T22:47:44.592Z,-3.00
2019-02-06T22:50:18.809Z,-3.00
2019-02-06T22:52:47.387Z,-3.10
2019-02-06T22:55:16.994Z,-3.10
2019-02-06T22:57:45.399Z,-3.00
2019-02-06T23:00:33.031Z,-2.90
2019-02-06T23:03:01.447Z,-2.90
2019-02-06T23:05:29.938Z,-2.70
2019-02-06T23:07:58.655Z,-2.70
2019-02-06T23:10:27.168Z,-2.70
2019-02-06T23:12:55.612Z,-2.60
2019-02-06T23:15:24.032Z,-2.70
2019-02-06T23:17:53.089Z,-2.60
2019-02-06T23:20:21.509Z,-2.50
2019-02-06T23:22:49.951Z,-2.40
2019-02-06T23:25:18.377Z,-2.40
2019-02-06T23:27:46.800Z,-2.40
2019-02-06T23:30:16.365Z,-2.40
2019-02-06T23:32:45.247Z,-2.40
2019-02-06T23:35:13.937Z,-2.30
2019-02-06T23:37:42.429Z,-2.30
2019-02-06T23:40:15.840Z,-2.30
2019-02-06T23:42:44.339Z,-2.20
2019-02-06T23:45:13.350Z,-2.30
2019-02-06T23:47:42.245Z,-2.20
2019-02-06T23:50:15.277Z,-2.20
2019-02-06T23:52:44.010Z,-2.20
2019-02-06T23:55:12.609Z,-2.30
2019-02-06T23:57:41.011Z,-2.20
